sensor_id;sensor_type;location;lat;lon;timestamp;P1;durP1;ratioP1;P2;durP2;ratioP2
67500;SDS011;54349;52.528;19.760;2023-05-10T00:01:34;3.60;;;2.10;;
67500;SDS011;54349;52.528;19.760;2023-05-10T00:04:03;4.50;;;2.30;;
67500;SDS011;54349;52.528;19.760;2023-05-10T00:06:32;3.40;;;2.10;;
67500;SDS011;54349;52.528;19.760;2023-05-10T00:09:00;4.00;;;2.10;;
67500;SDS011;54349;52.528;19.760;2023-05-10T00:11:28;3.40;;;2.10;;
67500;SDS011;54349;52.528;19.760;2023-05-10T00:13:56;3.40;;;2.00;;
67500;SDS011;54349;52.528;19.760;2023-05-10T00:16:24;4.00;;;2.10;;
67500;SDS011;54349;52.528;19.760;2023-05-10T00:18:52;3.80;;;2.10;;
67500;SDS011;54349;52.528;19.760;2023-05-10T00:21:21;3.90;;;2.10;;
67500;SDS011;54349;52.528;19.760;2023-05-10T00:23:49;3.60;;;2.20;;
67500;SDS011;54349;52.528;19.760;2023-05-10T00:26:17;3.10;;;2.00;;
67500;SDS011;54349;52.528;19.760;2023-05-10T00:28:48;3.00;;;2.00;;
67500;SDS011;54349;52.528;19.760;2023-05-10T00:31:16;3.20;;;2.20;;
67500;SDS011;54349;52.528;19.760;2023-05-10T00:33:44;3.80;;;2.10;;
67500;SDS011;54349;52.528;19.760;2023-05-10T00:36:12;4.30;;;2.40;;
67500;SDS011;54349;52.528;19.760;2023-05-10T00:38:41;3.60;;;2.20;;
67500;SDS011;54349;52.528;19.760;2023-05-10T00:41:09;3.80;;;2.40;;
67500;SDS011;54349;52.528;19.760;2023-05-10T00:43:38;3.80;;;2.30;;
67500;SDS011;54349;52.528;19.760;2023-05-10T00:46:07;4.30;;;2.30;;
67500;SDS011;54349;52.528;19.760;2023-05-10T00:48:35;4.30;;;2.30;;
67500;SDS011;54349;52.528;19.760;2023-05-10T00:51:04;3.70;;;2.50;;
67500;SDS011;54349;52.528;19.760;2023-05-10T00:53:32;3.90;;;2.20;;
67500;SDS011;54349;52.528;19.760;2023-05-10T00:56:02;4.30;;;2.40;;
67500;SDS011;54349;52.528;19.760;2023-05-10T00:58:31;6.00;;;2.70;;
67500;SDS011;54349;52.528;19.760;2023-05-10T01:01:00;4.40;;;2.40;;
67500;SDS011;54349;52.528;19.760;2023-05-10T01:03:29;4.00;;;2.50;;
67500;SDS011;54349;52.528;19.760;2023-05-10T01:05:57;4.60;;;2.50;;
67500;SDS011;54349;52.528;19.760;2023-05-10T01:08:26;4.10;;;2.40;;
67500;SDS011;54349;52.528;19.760;2023-05-10T01:10:56;5.60;;;2.70;;
67500;SDS011;54349;52.528;19.760;2023-05-10T01:13:34;4.00;;;2.20;;
67500;SDS011;54349;52.528;19.760;2023-05-10T01:16:06;4.80;;;2.80;;
67500;SDS011;54349;52.528;19.760;2023-05-10T01:18:38;5.90;;;2.50;;
67500;SDS011;54349;52.528;19.760;2023-05-10T01:21:28;4.20;;;2.50;;
67500;SDS011;54349;52.528;19.760;2023-05-10T01:24:31;5.10;;;2.40;;
67500;SDS011;54349;52.528;19.760;2023-05-10T01:27:29;5.40;;;2.50;;
67500;SDS011;54349;52.528;19.760;2023-05-10T01:33:10;6.20;;;2.50;;
67500;SDS011;54349;52.528;19.760;2023-05-10T01:38:49;4.00;;;2.50;;
67500;SDS011;54349;52.528;19.760;2023-05-10T01:41:43;4.50;;;2.70;;
67500;SDS011;54349;52.528;19.760;2023-05-10T01:44:35;4.40;;;2.50;;
67500;SDS011;54349;52.528;19.760;2023-05-10T01:47:10;4.50;;;2.80;;
67500;SDS011;54349;52.528;19.760;2023-05-10T01:49:46;4.80;;;2.70;;
67500;SDS011;54349;52.528;19.760;2023-05-10T01:52:27;3.90;;;2.30;;
67500;SDS011;54349;52.528;19.760;2023-05-10T01:55:14;5.30;;;2.70;;
67500;SDS011;54349;52.528;19.760;2023-05-10T01:57:46;4.60;;;2.50;;
67500;SDS011;54349;52.528;19.760;2023-05-10T02:00:19;5.00;;;2.60;;
67500;SDS011;54349;52.528;19.760;2023-05-10T02:02:52;4.30;;;2.60;;
67500;SDS011;54349;52.528;19.760;2023-05-10T02:05:21;3.90;;;2.50;;
67500;SDS011;54349;52.528;19.760;2023-05-10T02:07:53;4.00;;;2.60;;
67500;SDS011;54349;52.528;19.760;2023-05-10T02:10:22;5.00;;;2.60;;
67500;SDS011;54349;52.528;19.760;2023-05-10T02:12:51;4.60;;;2.60;;
67500;SDS011;54349;52.528;19.760;2023-05-10T02:15:23;5.00;;;2.40;;
67500;SDS011;54349;52.528;19.760;2023-05-10T02:17:55;4.40;;;2.40;;
67500;SDS011;54349;52.528;19.760;2023-05-10T02:20:25;4.80;;;2.70;;
67500;SDS011;54349;52.528;19.760;2023-05-10T02:22:55;5.90;;;3.00;;
67500;SDS011;54349;52.528;19.760;2023-05-10T02:25:25;4.80;;;2.70;;
67500;SDS011;54349;52.528;19.760;2023-05-10T02:27:56;4.40;;;2.70;;
67500;SDS011;54349;52.528;19.760;2023-05-10T02:30:26;4.40;;;2.70;;
67500;SDS011;54349;52.528;19.760;2023-05-10T02:32:56;4.30;;;2.60;;
67500;SDS011;54349;52.528;19.760;2023-05-10T02:35:28;4.60;;;2.70;;
67500;SDS011;54349;52.528;19.760;2023-05-10T02:37:58;4.70;;;2.70;;
67500;SDS011;54349;52.528;19.760;2023-05-10T02:40:30;5.00;;;2.70;;
67500;SDS011;54349;52.528;19.760;2023-05-10T02:43:02;4.70;;;2.90;;
67500;SDS011;54349;52.528;19.760;2023-05-10T02:45:32;4.60;;;2.80;;
67500;SDS011;54349;52.528;19.760;2023-05-10T02:48:03;4.50;;;2.60;;
67500;SDS011;54349;52.528;19.760;2023-05-10T02:50:33;5.20;;;2.70;;
67500;SDS011;54349;52.528;19.760;2023-05-10T02:53:08;4.10;;;2.60;;
67500;SDS011;54349;52.528;19.760;2023-05-10T02:55:40;4.10;;;2.60;;
67500;SDS011;54349;52.528;19.760;2023-05-10T02:58:14;4.10;;;2.70;;
67500;SDS011;54349;52.528;19.760;2023-05-10T03:00:42;5.60;;;2.70;;
67500;SDS011;54349;52.528;19.760;2023-05-10T03:03:12;5.00;;;2.80;;
67500;SDS011;54349;52.528;19.760;2023-05-10T03:05:40;5.40;;;3.00;;
67500;SDS011;54349;52.528;19.760;2023-05-10T03:08:08;5.00;;;2.80;;
67500;SDS011;54349;52.528;19.760;2023-05-10T03:14:16;5.20;;;3.10;;
67500;SDS011;54349;52.528;19.760;2023-05-10T03:17:03;8.30;;;2.80;;
67500;SDS011;54349;52.528;19.760;2023-05-10T03:22:37;6.10;;;2.90;;
67500;SDS011;54349;52.528;19.760;2023-05-10T03:25:10;5.20;;;2.70;;
67500;SDS011;54349;52.528;19.760;2023-05-10T03:27:42;5.00;;;2.70;;
67500;SDS011;54349;52.528;19.760;2023-05-10T03:30:12;4.60;;;2.90;;
67500;SDS011;54349;52.528;19.760;2023-05-10T03:32:41;4.00;;;2.60;;
67500;SDS011;54349;52.528;19.760;2023-05-10T03:35:11;5.50;;;3.10;;
67500;SDS011;54349;52.528;19.760;2023-05-10T03:37:41;4.60;;;2.60;;
67500;SDS011;54349;52.528;19.760;2023-05-10T03:40:09;4.70;;;2.90;;
67500;SDS011;54349;52.528;19.760;2023-05-10T03:42:38;5.40;;;2.90;;
67500;SDS011;54349;52.528;19.760;2023-05-10T03:45:08;5.60;;;3.00;;
67500;SDS011;54349;52.528;19.760;2023-05-10T03:47:37;5.90;;;2.90;;
67500;SDS011;54349;52.528;19.760;2023-05-10T03:50:06;5.00;;;2.80;;
67500;SDS011;54349;52.528;19.760;2023-05-10T03:52:34;4.60;;;2.80;;
67500;SDS011;54349;52.528;19.760;2023-05-10T03:55:03;8.40;;;3.00;;
67500;SDS011;54349;52.528;19.760;2023-05-10T03:57:32;4.70;;;2.90;;
67500;SDS011;54349;52.528;19.760;2023-05-10T04:00:00;5.30;;;2.80;;
67500;SDS011;54349;52.528;19.760;2023-05-10T04:02:28;6.30;;;3.30;;
67500;SDS011;54349;52.528;19.760;2023-05-10T04:04:58;5.70;;;2.60;;
67500;SDS011;54349;52.528;19.760;2023-05-10T04:07:25;4.70;;;2.70;;
67500;SDS011;54349;52.528;19.760;2023-05-10T04:09:54;6.50;;;3.30;;
67500;SDS011;54349;52.528;19.760;2023-05-10T04:12:22;4.80;;;3.00;;
67500;SDS011;54349;52.528;19.760;2023-05-10T04:14:50;6.10;;;2.80;;
67500;SDS011;54349;52.528;19.760;2023-05-10T04:17:18;5.50;;;2.80;;
67500;SDS011;54349;52.528;19.760;2023-05-10T04:19:46;4.50;;;2.80;;
67500;SDS011;54349;52.528;19.760;2023-05-10T04:22:14;4.70;;;2.80;;
67500;SDS011;54349;52.528;19.760;2023-05-10T04:24:43;5.10;;;2.80;;
67500;SDS011;54349;52.528;19.760;2023-05-10T04:27:11;4.50;;;2.60;;
67500;SDS011;54349;52.528;19.760;2023-05-10T04:29:39;5.60;;;3.00;;
67500;SDS011;54349;52.528;19.760;2023-05-10T04:32:08;5.20;;;3.10;;
67500;SDS011;54349;52.528;19.760;2023-05-10T04:34:37;5.10;;;2.80;;
67500;SDS011;54349;52.528;19.760;2023-05-10T04:37:05;5.00;;;3.00;;
67500;SDS011;54349;52.528;19.760;2023-05-10T04:39:35;4.80;;;2.80;;
67500;SDS011;54349;52.528;19.760;2023-05-10T04:42:03;4.50;;;2.80;;
67500;SDS011;54349;52.528;19.760;2023-05-10T04:44:33;4.80;;;2.60;;
67500;SDS011;54349;52.528;19.760;2023-05-10T04:47:02;5.80;;;2.90;;
67500;SDS011;54349;52.528;19.760;2023-05-10T04:49:31;6.40;;;2.80;;
67500;SDS011;54349;52.528;19.760;2023-05-10T04:51:59;4.70;;;2.70;;
67500;SDS011;54349;52.528;19.760;2023-05-10T04:54:27;4.90;;;3.00;;
67500;SDS011;54349;52.528;19.760;2023-05-10T04:56:54;4.60;;;2.70;;
67500;SDS011;54349;52.528;19.760;2023-05-10T04:59:23;4.90;;;2.80;;
67500;SDS011;54349;52.528;19.760;2023-05-10T05:01:51;5.10;;;2.90;;
67500;SDS011;54349;52.528;19.760;2023-05-10T05:04:19;5.70;;;2.90;;
67500;SDS011;54349;52.528;19.760;2023-05-10T05:06:47;4.10;;;2.60;;
67500;SDS011;54349;52.528;19.760;2023-05-10T05:09:15;4.60;;;2.60;;
67500;SDS011;54349;52.528;19.760;2023-05-10T05:11:44;4.80;;;2.60;;
67500;SDS011;54349;52.528;19.760;2023-05-10T05:14:12;5.30;;;2.50;;
67500;SDS011;54349;52.528;19.760;2023-05-10T05:16:40;5.40;;;2.80;;
67500;SDS011;54349;52.528;19.760;2023-05-10T05:19:08;5.70;;;2.80;;
67500;SDS011;54349;52.528;19.760;2023-05-10T05:21:36;5.40;;;2.80;;
67500;SDS011;54349;52.528;19.760;2023-05-10T05:24:05;5.30;;;2.90;;
67500;SDS011;54349;52.528;19.760;2023-05-10T05:26:33;8.10;;;3.30;;
67500;SDS011;54349;52.528;19.760;2023-05-10T05:29:02;7.50;;;3.20;;
67500;SDS011;54349;52.528;19.760;2023-05-10T05:31:30;12.70;;;3.70;;
67500;SDS011;54349;52.528;19.760;2023-05-10T05:33:58;9.90;;;3.10;;
67500;SDS011;54349;52.528;19.760;2023-05-10T05:36:26;8.60;;;3.30;;
67500;SDS011;54349;52.528;19.760;2023-05-10T05:38:55;9.90;;;3.60;;
67500;SDS011;54349;52.528;19.760;2023-05-10T05:41:23;8.50;;;3.40;;
67500;SDS011;54349;52.528;19.760;2023-05-10T05:43:52;9.70;;;3.70;;
67500;SDS011;54349;52.528;19.760;2023-05-10T05:46:20;9.90;;;3.00;;
67500;SDS011;54349;52.528;19.760;2023-05-10T05:48:48;7.70;;;3.30;;
67500;SDS011;54349;52.528;19.760;2023-05-10T05:51:16;7.50;;;3.00;;
67500;SDS011;54349;52.528;19.760;2023-05-10T05:53:44;8.50;;;3.30;;
67500;SDS011;54349;52.528;19.760;2023-05-10T05:56:12;9.40;;;3.30;;
67500;SDS011;54349;52.528;19.760;2023-05-10T05:58:40;7.80;;;3.00;;
67500;SDS011;54349;52.528;19.760;2023-05-10T06:01:09;7.90;;;3.00;;
67500;SDS011;54349;52.528;19.760;2023-05-10T06:03:37;7.10;;;3.10;;
67500;SDS011;54349;52.528;19.760;2023-05-10T06:06:05;8.30;;;3.20;;
67500;SDS011;54349;52.528;19.760;2023-05-10T06:08:34;8.40;;;3.50;;
67500;SDS011;54349;52.528;19.760;2023-05-10T06:11:02;14.50;;;3.20;;
67500;SDS011;54349;52.528;19.760;2023-05-10T06:13:31;7.70;;;3.00;;
67500;SDS011;54349;52.528;19.760;2023-05-10T06:16:02;8.80;;;3.00;;
67500;SDS011;54349;52.528;19.760;2023-05-10T06:18:30;7.10;;;3.30;;
67500;SDS011;54349;52.528;19.760;2023-05-10T06:20:59;8.20;;;2.80;;
67500;SDS011;54349;52.528;19.760;2023-05-10T06:23:27;7.30;;;3.10;;
67500;SDS011;54349;52.528;19.760;2023-05-10T06:25:55;8.60;;;3.30;;
67500;SDS011;54349;52.528;19.760;2023-05-10T06:28:23;7.70;;;2.70;;
67500;SDS011;54349;52.528;19.760;2023-05-10T06:30:51;7.70;;;2.90;;
67500;SDS011;54349;52.528;19.760;2023-05-10T06:33:19;6.70;;;3.00;;
67500;SDS011;54349;52.528;19.760;2023-05-10T06:35:48;6.30;;;2.90;;
67500;SDS011;54349;52.528;19.760;2023-05-10T06:38:16;8.60;;;3.30;;
67500;SDS011;54349;52.528;19.760;2023-05-10T06:40:44;5.70;;;2.50;;
67500;SDS011;54349;52.528;19.760;2023-05-10T06:43:12;9.80;;;3.10;;
67500;SDS011;54349;52.528;19.760;2023-05-10T06:45:42;7.30;;;3.00;;
67500;SDS011;54349;52.528;19.760;2023-05-10T06:48:10;6.30;;;2.70;;
67500;SDS011;54349;52.528;19.760;2023-05-10T06:50:39;9.50;;;3.10;;
67500;SDS011;54349;52.528;19.760;2023-05-10T06:53:07;8.30;;;3.00;;
67500;SDS011;54349;52.528;19.760;2023-05-10T06:55:35;7.70;;;3.10;;
67500;SDS011;54349;52.528;19.760;2023-05-10T06:58:03;6.00;;;2.90;;
67500;SDS011;54349;52.528;19.760;2023-05-10T07:00:31;6.30;;;2.60;;
67500;SDS011;54349;52.528;19.760;2023-05-10T07:02:59;5.30;;;2.80;;
67500;SDS011;54349;52.528;19.760;2023-05-10T07:05:28;7.20;;;2.80;;
67500;SDS011;54349;52.528;19.760;2023-05-10T07:07:57;6.60;;;2.70;;
67500;SDS011;54349;52.528;19.760;2023-05-10T07:10:25;4.80;;;2.70;;
67500;SDS011;54349;52.528;19.760;2023-05-10T07:12:53;6.70;;;2.80;;
67500;SDS011;54349;52.528;19.760;2023-05-10T07:15:21;9.00;;;2.90;;
67500;SDS011;54349;52.528;19.760;2023-05-10T07:17:50;9.30;;;2.60;;
67500;SDS011;54349;52.528;19.760;2023-05-10T07:20:20;6.30;;;2.50;;
67500;SDS011;54349;52.528;19.760;2023-05-10T07:22:48;7.80;;;2.90;;
67500;SDS011;54349;52.528;19.760;2023-05-10T07:25:16;6.30;;;2.70;;
67500;SDS011;54349;52.528;19.760;2023-05-10T07:27:45;5.40;;;2.40;;
67500;SDS011;54349;52.528;19.760;2023-05-10T07:30:13;5.80;;;2.60;;
67500;SDS011;54349;52.528;19.760;2023-05-10T07:32:42;7.20;;;2.90;;
67500;SDS011;54349;52.528;19.760;2023-05-10T07:35:11;8.50;;;2.80;;
67500;SDS011;54349;52.528;19.760;2023-05-10T07:37:38;7.50;;;2.60;;
67500;SDS011;54349;52.528;19.760;2023-05-10T07:40:08;5.90;;;2.50;;
67500;SDS011;54349;52.528;19.760;2023-05-10T07:42:36;6.30;;;2.60;;
67500;SDS011;54349;52.528;19.760;2023-05-10T07:45:06;5.30;;;2.50;;
67500;SDS011;54349;52.528;19.760;2023-05-10T07:47:34;6.80;;;2.50;;
67500;SDS011;54349;52.528;19.760;2023-05-10T07:50:03;6.40;;;2.50;;
67500;SDS011;54349;52.528;19.760;2023-05-10T07:52:33;5.50;;;2.50;;
67500;SDS011;54349;52.528;19.760;2023-05-10T07:55:01;6.70;;;2.50;;
67500;SDS011;54349;52.528;19.760;2023-05-10T07:57:30;4.20;;;2.30;;
67500;SDS011;54349;52.528;19.760;2023-05-10T07:59:58;6.10;;;2.50;;
67500;SDS011;54349;52.528;19.760;2023-05-10T08:02:26;5.20;;;2.40;;
67500;SDS011;54349;52.528;19.760;2023-05-10T08:04:55;5.90;;;2.60;;
67500;SDS011;54349;52.528;19.760;2023-05-10T08:07:24;7.00;;;2.30;;
67500;SDS011;54349;52.528;19.760;2023-05-10T08:09:52;6.90;;;2.70;;
67500;SDS011;54349;52.528;19.760;2023-05-10T08:12:20;5.60;;;2.20;;
67500;SDS011;54349;52.528;19.760;2023-05-10T08:14:48;5.60;;;2.20;;
67500;SDS011;54349;52.528;19.760;2023-05-10T08:17:16;4.40;;;2.10;;
67500;SDS011;54349;52.528;19.760;2023-05-10T08:19:47;3.90;;;2.20;;
67500;SDS011;54349;52.528;19.760;2023-05-10T08:22:15;5.10;;;2.40;;
67500;SDS011;54349;52.528;19.760;2023-05-10T08:24:43;3.50;;;2.00;;
67500;SDS011;54349;52.528;19.760;2023-05-10T08:27:11;5.60;;;2.20;;
67500;SDS011;54349;52.528;19.760;2023-05-10T08:29:40;5.70;;;2.30;;
67500;SDS011;54349;52.528;19.760;2023-05-10T08:32:17;4.40;;;1.80;;
67500;SDS011;54349;52.528;19.760;2023-05-10T08:34:45;5.60;;;2.30;;
67500;SDS011;54349;52.528;19.760;2023-05-10T08:37:13;5.70;;;2.20;;
67500;SDS011;54349;52.528;19.760;2023-05-10T08:39:41;3.70;;;1.90;;
67500;SDS011;54349;52.528;19.760;2023-05-10T08:42:09;4.10;;;1.90;;
67500;SDS011;54349;52.528;19.760;2023-05-10T08:44:39;6.30;;;2.20;;
67500;SDS011;54349;52.528;19.760;2023-05-10T08:47:08;5.50;;;2.30;;
67500;SDS011;54349;52.528;19.760;2023-05-10T08:49:38;4.60;;;2.20;;
67500;SDS011;54349;52.528;19.760;2023-05-10T08:52:08;4.30;;;2.10;;
67500;SDS011;54349;52.528;19.760;2023-05-10T08:54:42;5.20;;;2.30;;
67500;SDS011;54349;52.528;19.760;2023-05-10T08:57:11;4.10;;;2.00;;
67500;SDS011;54349;52.528;19.760;2023-05-10T08:59:39;4.70;;;2.40;;
67500;SDS011;54349;52.528;19.760;2023-05-10T09:02:09;4.30;;;1.90;;
67500;SDS011;54349;52.528;19.760;2023-05-10T09:04:43;5.00;;;2.20;;
67500;SDS011;54349;52.528;19.760;2023-05-10T09:07:11;4.30;;;2.00;;
67500;SDS011;54349;52.528;19.760;2023-05-10T09:09:40;4.90;;;2.30;;
67500;SDS011;54349;52.528;19.760;2023-05-10T09:12:08;4.50;;;2.30;;
67500;SDS011;54349;52.528;19.760;2023-05-10T09:14:39;3.90;;;1.80;;
67500;SDS011;54349;52.528;19.760;2023-05-10T09:17:09;3.80;;;2.00;;
67500;SDS011;54349;52.528;19.760;2023-05-10T09:19:37;5.30;;;1.90;;
67500;SDS011;54349;52.528;19.760;2023-05-10T09:22:06;3.80;;;1.90;;
67500;SDS011;54349;52.528;19.760;2023-05-10T09:24:34;3.20;;;1.70;;
67500;SDS011;54349;52.528;19.760;2023-05-10T09:27:02;3.80;;;2.00;;
67500;SDS011;54349;52.528;19.760;2023-05-10T09:29:42;3.50;;;1.80;;
67500;SDS011;54349;52.528;19.760;2023-05-10T09:32:11;3.70;;;1.80;;
67500;SDS011;54349;52.528;19.760;2023-05-10T09:34:40;4.30;;;2.10;;
67500;SDS011;54349;52.528;19.760;2023-05-10T09:37:10;3.90;;;1.80;;
67500;SDS011;54349;52.528;19.760;2023-05-10T09:39:38;4.20;;;1.90;;
67500;SDS011;54349;52.528;19.760;2023-05-10T09:42:08;3.80;;;1.80;;
67500;SDS011;54349;52.528;19.760;2023-05-10T09:44:37;3.50;;;1.80;;
67500;SDS011;54349;52.528;19.760;2023-05-10T09:47:05;3.50;;;1.90;;
67500;SDS011;54349;52.528;19.760;2023-05-10T09:49:34;5.20;;;2.10;;
67500;SDS011;54349;52.528;19.760;2023-05-10T09:52:04;4.30;;;2.10;;
67500;SDS011;54349;52.528;19.760;2023-05-10T09:54:34;3.00;;;1.70;;
67500;SDS011;54349;52.528;19.760;2023-05-10T09:57:02;6.00;;;2.10;;
67500;SDS011;54349;52.528;19.760;2023-05-10T09:59:32;4.20;;;1.70;;
67500;SDS011;54349;52.528;19.760;2023-05-10T10:02:03;3.50;;;1.80;;
67500;SDS011;54349;52.528;19.760;2023-05-10T10:04:31;3.90;;;2.00;;
67500;SDS011;54349;52.528;19.760;2023-05-10T10:07:02;4.10;;;2.00;;
67500;SDS011;54349;52.528;19.760;2023-05-10T10:09:33;5.80;;;2.00;;
67500;SDS011;54349;52.528;19.760;2023-05-10T10:12:03;3.40;;;2.00;;
67500;SDS011;54349;52.528;19.760;2023-05-10T10:14:34;3.20;;;1.70;;
67500;SDS011;54349;52.528;19.760;2023-05-10T10:17:02;3.50;;;1.90;;
67500;SDS011;54349;52.528;19.760;2023-05-10T10:19:35;3.60;;;1.70;;
67500;SDS011;54349;52.528;19.760;2023-05-10T10:22:05;4.50;;;2.10;;
67500;SDS011;54349;52.528;19.760;2023-05-10T10:24:34;4.00;;;1.90;;
67500;SDS011;54349;52.528;19.760;2023-05-10T10:30:31;3.30;;;1.80;;
67500;SDS011;54349;52.528;19.760;2023-05-10T10:36:00;4.40;;;1.70;;
67500;SDS011;54349;52.528;19.760;2023-05-10T10:38:57;3.20;;;1.70;;
67500;SDS011;54349;52.528;19.760;2023-05-10T10:41:53;3.10;;;1.70;;
67500;SDS011;54349;52.528;19.760;2023-05-10T10:55:18;3.50;;;1.70;;
67500;SDS011;54349;52.528;19.760;2023-05-10T10:57:54;4.20;;;1.80;;
67500;SDS011;54349;52.528;19.760;2023-05-10T11:00:36;3.20;;;1.90;;
67500;SDS011;54349;52.528;19.760;2023-05-10T11:03:10;2.90;;;1.90;;
67500;SDS011;54349;52.528;19.760;2023-05-10T11:05:49;7.10;;;1.90;;
67500;SDS011;54349;52.528;19.760;2023-05-10T11:08:27;3.00;;;1.80;;
67500;SDS011;54349;52.528;19.760;2023-05-10T11:13:32;3.50;;;1.80;;
67500;SDS011;54349;52.528;19.760;2023-05-10T11:16:20;3.00;;;1.60;;
67500;SDS011;54349;52.528;19.760;2023-05-10T11:19:03;2.50;;;1.50;;
67500;SDS011;54349;52.528;19.760;2023-05-10T11:21:48;2.70;;;1.60;;
67500;SDS011;54349;52.528;19.760;2023-05-10T11:24:22;2.70;;;1.70;;
67500;SDS011;54349;52.528;19.760;2023-05-10T11:26:54;2.50;;;1.60;;
67500;SDS011;54349;52.528;19.760;2023-05-10T11:29:23;3.50;;;1.90;;
67500;SDS011;54349;52.528;19.760;2023-05-10T11:31:57;3.00;;;1.70;;
67500;SDS011;54349;52.528;19.760;2023-05-10T11:34:31;2.50;;;1.70;;
67500;SDS011;54349;52.528;19.760;2023-05-10T11:37:02;2.90;;;1.60;;
67500;SDS011;54349;52.528;19.760;2023-05-10T11:39:31;3.10;;;1.40;;
67500;SDS011;54349;52.528;19.760;2023-05-10T11:42:01;2.40;;;1.50;;
67500;SDS011;54349;52.528;19.760;2023-05-10T11:44:31;2.20;;;1.40;;
67500;SDS011;54349;52.528;19.760;2023-05-10T11:47:00;2.20;;;1.40;;
67500;SDS011;54349;52.528;19.760;2023-05-10T11:49:29;3.80;;;1.60;;
67500;SDS011;54349;52.528;19.760;2023-05-10T11:52:07;3.10;;;1.50;;
67500;SDS011;54349;52.528;19.760;2023-05-10T11:54:36;4.00;;;1.60;;
67500;SDS011;54349;52.528;19.760;2023-05-10T11:57:04;4.20;;;1.60;;
67500;SDS011;54349;52.528;19.760;2023-05-10T11:59:32;4.50;;;1.70;;
67500;SDS011;54349;52.528;19.760;2023-05-10T12:02:01;2.30;;;1.50;;
67500;SDS011;54349;52.528;19.760;2023-05-10T12:04:31;3.70;;;1.60;;
67500;SDS011;54349;52.528;19.760;2023-05-10T12:06:59;3.30;;;1.60;;
67500;SDS011;54349;52.528;19.760;2023-05-10T12:09:27;3.00;;;1.80;;
67500;SDS011;54349;52.528;19.760;2023-05-10T12:12:16;3.60;;;1.60;;
67500;SDS011;54349;52.528;19.760;2023-05-10T12:14:50;2.40;;;1.60;;
67500;SDS011;54349;52.528;19.760;2023-05-10T12:17:18;1.90;;;1.40;;
67500;SDS011;54349;52.528;19.760;2023-05-10T12:19:46;2.20;;;1.40;;
67500;SDS011;54349;52.528;19.760;2023-05-10T12:22:14;2.30;;;1.40;;
67500;SDS011;54349;52.528;19.760;2023-05-10T12:24:45;2.50;;;1.70;;
67500;SDS011;54349;52.528;19.760;2023-05-10T12:27:14;2.80;;;1.60;;
67500;SDS011;54349;52.528;19.760;2023-05-10T12:30:00;2.80;;;1.40;;
67500;SDS011;54349;52.528;19.760;2023-05-10T12:32:39;1.90;;;1.50;;
67500;SDS011;54349;52.528;19.760;2023-05-10T12:35:08;3.00;;;1.80;;
67500;SDS011;54349;52.528;19.760;2023-05-10T12:37:36;2.70;;;1.40;;
67500;SDS011;54349;52.528;19.760;2023-05-10T12:40:08;2.60;;;1.50;;
67500;SDS011;54349;52.528;19.760;2023-05-10T12:42:39;2.90;;;1.70;;
67500;SDS011;54349;52.528;19.760;2023-05-10T12:45:08;2.60;;;1.60;;
67500;SDS011;54349;52.528;19.760;2023-05-10T12:47:37;2.30;;;1.50;;
67500;SDS011;54349;52.528;19.760;2023-05-10T12:50:10;4.00;;;1.40;;
67500;SDS011;54349;52.528;19.760;2023-05-10T12:52:38;2.60;;;1.40;;
67500;SDS011;54349;52.528;19.760;2023-05-10T12:55:08;2.50;;;1.50;;
67500;SDS011;54349;52.528;19.760;2023-05-10T12:57:36;3.60;;;1.60;;
67500;SDS011;54349;52.528;19.760;2023-05-10T13:00:05;2.40;;;1.60;;
67500;SDS011;54349;52.528;19.760;2023-05-10T13:02:34;3.30;;;1.40;;
67500;SDS011;54349;52.528;19.760;2023-05-10T13:05:03;4.80;;;1.70;;
67500;SDS011;54349;52.528;19.760;2023-05-10T13:07:31;3.60;;;1.90;;
67500;SDS011;54349;52.528;19.760;2023-05-10T13:09:59;3.20;;;1.60;;
67500;SDS011;54349;52.528;19.760;2023-05-10T13:12:28;2.30;;;1.50;;
67500;SDS011;54349;52.528;19.760;2023-05-10T13:14:57;2.10;;;1.50;;
67500;SDS011;54349;52.528;19.760;2023-05-10T13:17:25;2.30;;;1.50;;
67500;SDS011;54349;52.528;19.760;2023-05-10T13:19:54;2.40;;;1.50;;
67500;SDS011;54349;52.528;19.760;2023-05-10T13:22:22;3.10;;;1.40;;
67500;SDS011;54349;52.528;19.760;2023-05-10T13:25:06;2.60;;;1.70;;
67500;SDS011;54349;52.528;19.760;2023-05-10T13:27:35;3.10;;;1.60;;
67500;SDS011;54349;52.528;19.760;2023-05-10T13:30:03;1.90;;;1.50;;
67500;SDS011;54349;52.528;19.760;2023-05-10T13:32:33;2.10;;;1.30;;
67500;SDS011;54349;52.528;19.760;2023-05-10T13:35:02;3.50;;;1.70;;
67500;SDS011;54349;52.528;19.760;2023-05-10T13:37:33;2.40;;;1.70;;
67500;SDS011;54349;52.528;19.760;2023-05-10T13:40:05;3.30;;;1.50;;
67500;SDS011;54349;52.528;19.760;2023-05-10T13:42:34;2.20;;;1.50;;
67500;SDS011;54349;52.528;19.760;2023-05-10T13:45:03;2.80;;;1.60;;
67500;SDS011;54349;52.528;19.760;2023-05-10T13:47:31;2.40;;;1.50;;
67500;SDS011;54349;52.528;19.760;2023-05-10T13:50:00;2.50;;;1.60;;
67500;SDS011;54349;52.528;19.760;2023-05-10T13:52:28;3.40;;;1.60;;
67500;SDS011;54349;52.528;19.760;2023-05-10T13:54:56;3.10;;;1.50;;
67500;SDS011;54349;52.528;19.760;2023-05-10T14:00:42;2.40;;;1.70;;
67500;SDS011;54349;52.528;19.760;2023-05-10T14:03:11;1.90;;;1.30;;
67500;SDS011;54349;52.528;19.760;2023-05-10T14:05:39;2.90;;;1.60;;
67500;SDS011;54349;52.528;19.760;2023-05-10T14:08:07;3.80;;;1.60;;
67500;SDS011;54349;52.528;19.760;2023-05-10T14:10:37;2.20;;;1.50;;
67500;SDS011;54349;52.528;19.760;2023-05-10T14:13:05;2.70;;;1.60;;
67500;SDS011;54349;52.528;19.760;2023-05-10T14:15:34;2.80;;;1.60;;
67500;SDS011;54349;52.528;19.760;2023-05-10T14:18:02;2.00;;;1.50;;
67500;SDS011;54349;52.528;19.760;2023-05-10T14:20:30;2.30;;;1.50;;
67500;SDS011;54349;52.528;19.760;2023-05-10T14:23:01;2.60;;;1.60;;
67500;SDS011;54349;52.528;19.760;2023-05-10T14:25:29;2.40;;;1.50;;
67500;SDS011;54349;52.528;19.760;2023-05-10T14:27:57;4.20;;;1.70;;
67500;SDS011;54349;52.528;19.760;2023-05-10T14:30:26;5.00;;;2.10;;
67500;SDS011;54349;52.528;19.760;2023-05-10T14:32:54;3.90;;;1.80;;
67500;SDS011;54349;52.528;19.760;2023-05-10T14:35:22;9.10;;;2.40;;
67500;SDS011;54349;52.528;19.760;2023-05-10T14:37:51;6.40;;;2.10;;
67500;SDS011;54349;52.528;19.760;2023-05-10T14:40:19;4.50;;;2.20;;
67500;SDS011;54349;52.528;19.760;2023-05-10T14:42:49;6.50;;;2.10;;
67500;SDS011;54349;52.528;19.760;2023-05-10T14:45:19;5.40;;;2.40;;
67500;SDS011;54349;52.528;19.760;2023-05-10T14:47:51;6.20;;;2.30;;
67500;SDS011;54349;52.528;19.760;2023-05-10T14:50:20;7.10;;;2.30;;
67500;SDS011;54349;52.528;19.760;2023-05-10T14:57:34;6.60;;;2.30;;
67500;SDS011;54349;52.528;19.760;2023-05-10T15:00:03;6.70;;;2.40;;
67500;SDS011;54349;52.528;19.760;2023-05-10T15:02:32;5.10;;;2.30;;
67500;SDS011;54349;52.528;19.760;2023-05-10T15:05:01;5.70;;;2.30;;
67500;SDS011;54349;52.528;19.760;2023-05-10T15:07:45;7.80;;;2.40;;
67500;SDS011;54349;52.528;19.760;2023-05-10T15:10:14;4.90;;;2.20;;
67500;SDS011;54349;52.528;19.760;2023-05-10T15:12:42;4.50;;;2.20;;
67500;SDS011;54349;52.528;19.760;2023-05-10T15:15:10;7.30;;;2.30;;
67500;SDS011;54349;52.528;19.760;2023-05-10T15:17:39;5.90;;;2.20;;
67500;SDS011;54349;52.528;19.760;2023-05-10T15:20:08;8.30;;;2.30;;
67500;SDS011;54349;52.528;19.760;2023-05-10T15:22:36;5.30;;;2.10;;
67500;SDS011;54349;52.528;19.760;2023-05-10T15:25:06;6.70;;;2.30;;
67500;SDS011;54349;52.528;19.760;2023-05-10T15:27:35;5.60;;;2.30;;
67500;SDS011;54349;52.528;19.760;2023-05-10T15:30:03;4.80;;;2.00;;
67500;SDS011;54349;52.528;19.760;2023-05-10T15:32:32;5.40;;;2.10;;